createdAt,value
2023-05-10T00:00:04.257Z,14.51
2023-05-10T00:01:04.182Z,14.46
2023-05-10T00:02:04.271Z,14.40
2023-05-10T00:03:04.278Z,14.45
2023-05-10T00:04:04.237Z,14.42
2023-05-10T00:05:04.191Z,14.40
2023-05-10T00:06:04.177Z,14.33
2023-05-10T00:07:04.182Z,14.42
2023-05-10T00:08:04.179Z,14.40
2023-05-10T00:09:04.177Z,14.32
2023-05-10T00:10:04.177Z,14.27
2023-05-10T00:11:04.191Z,14.29
2023-05-10T00:12:04.178Z,14.24
2023-05-10T00:13:04.213Z,14.25
2023-05-10T00:14:04.179Z,14.32
2023-05-10T00:15:04.183Z,14.20
2023-05-10T00:16:04.238Z,14.15
2023-05-10T00:17:04.179Z,14.20
2023-05-10T00:18:04.311Z,14.15
2023-05-10T00:19:04.179Z,14.28
2023-05-10T00:20:04.177Z,14.10
2023-05-10T00:21:04.186Z,14.15
2023-05-10T00:22:04.221Z,14.17
2023-05-10T00:23:04.177Z,14.12
2023-05-10T00:24:04.188Z,13.97
2023-05-10T00:25:04.176Z,14.09
2023-05-10T00:26:04.192Z,14.04
2023-05-10T00:27:04.172Z,14.04
2023-05-10T00:28:04.172Z,13.99
2023-05-10T00:29:04.180Z,14.07
2023-05-10T00:30:04.173Z,14.14
2023-05-10T00:31:04.180Z,14.06
2023-05-10T00:32:04.272Z,14.07
2023-05-10T00:33:04.221Z,14.12
2023-05-10T00:34:04.224Z,13.97
2023-05-10T00:35:04.175Z,13.92
2023-05-10T00:36:04.177Z,14.00
2023-05-10T00:37:04.184Z,13.92
2023-05-10T00:38:04.181Z,13.89
2023-05-10T00:39:04.183Z,13.97
2023-05-10T00:40:04.167Z,13.91
2023-05-10T00:41:04.183Z,13.96
2023-05-10T00:42:04.170Z,13.81
2023-05-10T00:43:04.167Z,13.79
2023-05-10T00:44:04.184Z,13.89
2023-05-10T00:45:04.174Z,13.82
2023-05-10T00:46:04.227Z,13.79
2023-05-10T00:47:04.170Z,13.71
2023-05-10T00:48:04.208Z,13.71
2023-05-10T00:49:04.171Z,13.84
2023-05-10T00:50:04.189Z,13.73
2023-05-10T00:51:04.177Z,13.77
2023-05-10T00:52:04.177Z,13.67
2023-05-10T00:53:04.174Z,13.79
2023-05-10T00:54:04.167Z,13.70
2023-05-10T00:55:04.171Z,13.66
2023-05-10T00:56:04.171Z,13.70
2023-05-10T00:57:04.193Z,13.67
2023-05-10T00:58:04.162Z,13.67
2023-05-10T00:59:04.174Z,13.73
2023-05-10T01:00:04.160Z,13.55
2023-05-10T01:01:04.186Z,13.59
2023-05-10T01:02:04.198Z,13.67
2023-05-10T01:03:04.297Z,13.57
2023-05-10T01:04:04.177Z,13.55
2023-05-10T01:05:04.296Z,13.62
2023-05-10T01:06:04.188Z,13.49
2023-05-10T01:07:04.168Z,13.59
2023-05-10T01:08:04.161Z,13.59
2023-05-10T01:09:04.158Z,13.54
2023-05-10T01:10:04.163Z,13.54
2023-05-10T01:11:04.164Z,13.57
2023-05-10T01:12:04.254Z,13.52
2023-05-10T01:13:04.270Z,13.54
2023-05-10T01:14:04.154Z,13.67
2023-05-10T01:15:04.160Z,13.66
2023-05-10T01:16:04.288Z,13.64
2023-05-10T01:17:04.160Z,13.55
2023-05-10T01:18:04.220Z,13.57
2023-05-10T01:19:04.166Z,13.62
2023-05-10T01:20:04.163Z,13.54
2023-05-10T01:21:04.158Z,13.57
2023-05-10T01:22:04.190Z,13.57
2023-05-10T01:23:04.156Z,13.57
2023-05-10T01:24:04.154Z,13.57
2023-05-10T01:25:04.157Z,13.52
2023-05-10T01:26:04.154Z,13.62
2023-05-10T01:27:04.162Z,13.45
2023-05-10T01:28:04.150Z,13.48
2023-05-10T01:29:04.166Z,13.49
2023-05-10T01:30:14.673Z,13.33
2023-05-10T01:31:04.177Z,13.45
2023-05-10T01:32:04.174Z,13.45
2023-05-10T01:33:04.200Z,13.44
2023-05-10T01:34:04.150Z,13.41
2023-05-10T01:35:04.158Z,13.33
2023-05-10T01:36:04.154Z,13.30
2023-05-10T01:37:04.150Z,13.20
2023-05-10T01:38:04.172Z,13.42
2023-05-10T01:39:04.139Z,13.45
2023-05-10T01:40:04.141Z,13.39
2023-05-10T01:41:04.148Z,13.42
2023-05-10T01:42:04.141Z,13.33
2023-05-10T01:43:04.141Z,13.28
2023-05-10T01:44:04.139Z,13.28
2023-05-10T01:45:04.153Z,13.22
2023-05-10T01:46:04.143Z,13.12
2023-05-10T01:47:04.214Z,13.17
2023-05-10T01:48:04.159Z,13.19
2023-05-10T01:49:04.134Z,13.23
2023-05-10T01:50:04.146Z,13.12
2023-05-10T01:51:04.137Z,13.10
2023-05-10T01:52:04.136Z,13.17
2023-05-10T01:53:04.129Z,13.22
2023-05-10T01:54:04.167Z,13.20
2023-05-10T01:55:04.134Z,13.17
2023-05-10T01:56:04.130Z,13.08
2023-05-10T01:57:04.139Z,13.05
2023-05-10T01:58:04.140Z,13.10
2023-05-10T01:59:04.140Z,13.08
2023-05-10T02:00:04.144Z,13.07
2023-05-10T02:01:04.147Z,13.11
2023-05-10T02:02:04.140Z,13.12
2023-05-10T02:03:04.220Z,13.08
2023-05-10T02:04:04.205Z,13.14
2023-05-10T02:05:04.130Z,13.11
2023-05-10T02:06:04.119Z,13.01
2023-05-10T02:07:04.120Z,13.17
2023-05-10T02:08:04.124Z,13.17
2023-05-10T02:09:04.126Z,13.19
2023-05-10T02:10:04.139Z,13.23
2023-05-10T02:11:04.130Z,13.10
2023-05-10T02:12:04.121Z,13.04
2023-05-10T02:13:04.211Z,13.17
2023-05-10T02:14:04.117Z,13.12
2023-05-10T02:15:04.116Z,13.12
2023-05-10T02:16:04.112Z,13.04
2023-05-10T02:17:04.187Z,13.05
2023-05-10T02:18:04.129Z,12.96
2023-05-10T02:19:04.118Z,13.00
2023-05-10T02:20:04.113Z,12.85
2023-05-10T02:21:04.122Z,13.07
2023-05-10T02:22:04.158Z,13.03
2023-05-10T02:23:04.136Z,12.90
2023-05-10T02:24:04.128Z,12.86
2023-05-10T02:25:04.107Z,12.87
2023-05-10T02:26:04.251Z,13.00
2023-05-10T02:27:04.113Z,13.01
2023-05-10T02:28:04.107Z,12.87
2023-05-10T02:29:04.124Z,13.00
2023-05-10T02:30:04.104Z,12.96
2023-05-10T02:31:04.107Z,12.87
2023-05-10T02:32:04.155Z,12.87
2023-05-10T02:33:04.205Z,13.00
2023-05-10T02:34:04.102Z,13.05
2023-05-10T02:35:04.097Z,12.95
2023-05-10T02:36:04.110Z,12.97
2023-05-10T02:37:04.105Z,13.04
2023-05-10T02:38:04.100Z,13.03
2023-05-10T02:39:04.108Z,12.78
2023-05-10T02:40:04.097Z,12.82
2023-05-10T02:41:04.093Z,12.75
2023-05-10T02:42:04.122Z,12.90
2023-05-10T02:43:04.095Z,12.78
2023-05-10T02:44:04.092Z,12.85
2023-05-10T02:45:04.099Z,12.75
2023-05-10T02:46:04.103Z,12.75
2023-05-10T02:47:04.092Z,12.72
2023-05-10T02:48:04.120Z,12.70
2023-05-10T02:49:04.106Z,12.85
2023-05-10T02:50:04.084Z,12.70
2023-05-10T02:51:04.084Z,12.78
2023-05-10T02:52:04.092Z,12.75
2023-05-10T02:53:04.144Z,12.82
2023-05-10T02:54:04.089Z,12.83
2023-05-10T02:55:04.104Z,12.75
2023-05-10T02:56:04.082Z,12.71
2023-05-10T02:57:04.084Z,12.77
2023-05-10T02:58:04.111Z,12.77
2023-05-10T02:59:04.075Z,12.79
2023-05-10T03:00:04.101Z,12.70
2023-05-10T03:01:04.089Z,12.77
2023-05-10T03:02:04.079Z,12.71
2023-05-10T03:03:04.124Z,12.67
2023-05-10T03:04:04.094Z,12.71
2023-05-10T03:05:04.131Z,12.67
2023-05-10T03:06:04.071Z,12.75
2023-05-10T03:07:04.077Z,12.67
2023-05-10T03:08:04.078Z,12.67
2023-05-10T03:09:04.069Z,12.62
2023-05-10T03:10:04.084Z,12.65
2023-05-10T03:11:04.065Z,12.71
2023-05-10T03:12:04.090Z,12.67
2023-05-10T03:13:04.088Z,12.56
2023-05-10T03:14:04.091Z,12.52
2023-05-10T03:15:04.069Z,12.67
2023-05-10T03:16:04.153Z,12.65
2023-05-10T03:17:04.070Z,12.54
2023-05-10T03:18:04.118Z,12.56
2023-05-10T03:19:04.056Z,12.53
2023-05-10T03:20:04.066Z,12.65
2023-05-10T03:21:04.086Z,12.68
2023-05-10T03:22:04.061Z,12.75
2023-05-10T03:23:04.061Z,12.75
2023-05-10T03:24:04.064Z,12.70
2023-05-10T03:25:04.059Z,12.54
2023-05-10T03:26:04.056Z,12.57
2023-05-10T03:27:04.049Z,12.52
2023-05-10T03:28:04.062Z,12.59
2023-05-10T03:29:04.049Z,12.54
2023-05-10T03:30:04.132Z,12.54
2023-05-10T03:31:04.062Z,12.59
2023-05-10T03:32:04.048Z,12.59
2023-05-10T03:33:04.103Z,12.53
2023-05-10T03:34:04.051Z,12.57
2023-05-10T03:35:04.055Z,12.60
2023-05-10T03:36:04.045Z,12.56
2023-05-10T03:37:04.041Z,12.64
2023-05-10T03:38:04.046Z,12.52
2023-05-10T03:39:04.041Z,12.54
2023-05-10T03:40:04.043Z,12.56
2023-05-10T03:41:04.041Z,12.54
2023-05-10T03:42:04.042Z,12.49
2023-05-10T03:43:04.040Z,12.50
2023-05-10T03:44:04.039Z,12.67
2023-05-10T03:45:04.028Z,12.56
2023-05-10T03:46:04.079Z,12.57
2023-05-10T03:47:04.113Z,12.57
2023-05-10T03:48:04.080Z,12.56
2023-05-10T03:49:04.029Z,12.42
2023-05-10T03:50:04.031Z,12.47
2023-05-10T03:51:04.025Z,12.54
2023-05-10T03:52:04.028Z,12.54
2023-05-10T03:53:04.031Z,12.59
2023-05-10T03:54:04.022Z,12.56
2023-05-10T03:55:04.020Z,12.57
2023-05-10T03:56:04.052Z,12.64
2023-05-10T03:57:04.032Z,12.54
2023-05-10T03:58:04.017Z,12.67
2023-05-10T03:59:04.026Z,12.67
2023-05-10T04:00:04.034Z,12.67
2023-05-10T04:01:04.016Z,12.74
2023-05-10T04:02:04.139Z,12.70
2023-05-10T04:03:04.039Z,12.60
2023-05-10T04:04:04.048Z,12.70
2023-05-10T04:05:04.036Z,12.68
2023-05-10T04:06:04.062Z,12.65
2023-05-10T04:07:04.019Z,12.83
2023-05-10T04:08:04.012Z,12.68
2023-05-10T04:09:04.017Z,12.70
2023-05-10T04:10:04.012Z,12.75
2023-05-10T04:11:04.003Z,12.83
2023-05-10T04:12:04.026Z,12.72
2023-05-10T04:13:04.062Z,12.78
2023-05-10T04:14:04.009Z,12.85
2023-05-10T04:15:04.002Z,12.82
2023-05-10T04:16:04.009Z,12.86
2023-05-10T04:17:04.092Z,12.77
2023-05-10T04:18:04.789Z,12.82
2023-05-10T04:19:04.010Z,12.82
2023-05-10T04:20:04.007Z,12.78
2023-05-10T04:21:04.000Z,12.79
2023-05-10T04:22:03.998Z,12.93
2023-05-10T04:23:04.004Z,13.00
2023-05-10T04:24:03.997Z,12.95
2023-05-10T04:25:03.990Z,12.92
2023-05-10T04:26:03.985Z,12.89
2023-05-10T04:27:03.987Z,13.04
2023-05-10T04:28:04.011Z,13.03
2023-05-10T04:29:03.986Z,13.12
2023-05-10T04:30:03.997Z,13.19
2023-05-10T04:31:04.017Z,13.10
2023-05-10T04:32:03.991Z,13.17
2023-05-10T04:33:04.050Z,13.12
2023-05-10T04:34:04.031Z,13.14
2023-05-10T04:35:03.978Z,13.05
2023-05-10T04:36:03.985Z,13.26
2023-05-10T04:37:03.977Z,13.26
2023-05-10T04:38:03.987Z,13.42
2023-05-10T04:39:03.976Z,13.39
2023-05-10T04:40:03.973Z,13.39
2023-05-10T04:41:03.973Z,13.42
2023-05-10T04:42:03.997Z,13.51
2023-05-10T04:43:03.974Z,13.64
2023-05-10T04:44:03.972Z,13.63
2023-05-10T04:45:03.982Z,13.59
2023-05-10T04:46:04.083Z,13.62
2023-05-10T04:47:03.968Z,13.64
2023-05-10T04:48:04.027Z,13.63
2023-05-10T04:49:03.964Z,13.71
2023-05-10T04:50:03.991Z,13.77
2023-05-10T04:51:03.966Z,13.75
2023-05-10T04:52:03.965Z,13.88
2023-05-10T04:53:03.967Z,13.84
2023-05-10T04:54:06.621Z,13.87
2023-05-10T04:55:03.964Z,13.92
2023-05-10T04:56:03.964Z,13.96
2023-05-10T04:57:03.957Z,13.91
2023-05-10T04:58:03.962Z,13.97
2023-05-10T04:59:03.954Z,14.09
2023-05-10T05:00:03.981Z,14.09
2023-05-10T05:01:03.959Z,14.18
2023-05-10T05:02:04.003Z,14.29
2023-05-10T05:03:04.085Z,14.21
2023-05-10T05:04:03.953Z,14.18
2023-05-10T05:05:03.949Z,14.27
2023-05-10T05:06:03.977Z,14.28
2023-05-10T05:07:03.949Z,14.28
2023-05-10T05:08:03.952Z,14.39
2023-05-10T05:09:03.944Z,14.57
2023-05-10T05:10:03.951Z,14.55
2023-05-10T05:11:03.958Z,14.65
2023-05-10T05:12:03.950Z,14.60
2023-05-10T05:13:03.967Z,14.69
2023-05-10T05:14:03.947Z,14.68
2023-05-10T05:15:03.939Z,14.65
2023-05-10T05:16:03.998Z,14.80
2023-05-10T05:17:03.937Z,14.65
2023-05-10T05:18:03.961Z,14.72
2023-05-10T05:19:03.940Z,14.81
2023-05-10T05:20:03.942Z,14.98
2023-05-10T05:21:03.939Z,15.13
2023-05-10T05:22:03.976Z,15.03
2023-05-10T05:23:03.948Z,15.13
2023-05-10T05:24:03.948Z,15.17
2023-05-10T05:25:03.934Z,15.14
2023-05-10T05:26:03.943Z,15.11
2023-05-10T05:27:03.930Z,15.23
2023-05-10T05:28:03.932Z,15.28
2023-05-10T05:29:03.951Z,15.31
2023-05-10T05:30:03.935Z,15.31
2023-05-10T05:31:03.929Z,15.41
2023-05-10T05:32:04.015Z,15.38
2023-05-10T05:33:03.947Z,15.49
2023-05-10T05:34:03.934Z,15.65
2023-05-10T05:35:03.925Z,15.82
2023-05-10T05:36:03.943Z,15.87
2023-05-10T05:37:03.920Z,15.75
2023-05-10T05:38:03.954Z,15.74
2023-05-10T05:39:03.922Z,15.90
2023-05-10T05:40:03.921Z,15.90
2023-05-10T05:41:03.920Z,15.97
2023-05-10T05:42:03.934Z,15.94
2023-05-10T05:43:03.924Z,16.02
2023-05-10T05:44:03.921Z,15.97
2023-05-10T05:45:03.917Z,15.97
2023-05-10T05:46:03.980Z,16.08
2023-05-10T05:47:03.921Z,16.09
2023-05-10T05:48:04.013Z,16.08
2023-05-10T05:49:03.919Z,16.27
2023-05-10T05:50:03.929Z,16.27
2023-05-10T05:51:05.852Z,16.41
2023-05-10T05:52:03.921Z,16.46
2023-05-10T05:53:03.912Z,16.53
2023-05-10T05:54:03.956Z,16.52
2023-05-10T05:55:03.916Z,16.64
2023-05-10T05:56:03.915Z,16.66
2023-05-10T05:57:03.916Z,16.73
2023-05-10T05:58:03.939Z,16.70
2023-05-10T05:59:03.915Z,16.78
2023-05-10T06:00:03.919Z,16.88
2023-05-10T06:01:03.931Z,16.97
2023-05-10T06:02:03.954Z,16.98
2023-05-10T06:03:03.967Z,17.14
2023-05-10T06:04:04.016Z,17.03
2023-05-10T06:05:03.912Z,17.11
2023-05-10T06:06:03.914Z,17.06
2023-05-10T06:07:03.918Z,17.14
2023-05-10T06:08:03.911Z,17.21
2023-05-10T06:09:03.921Z,17.07
2023-05-10T06:10:03.957Z,17.16
2023-05-10T06:11:03.914Z,17.40
2023-05-10T06:12:03.924Z,17.56
2023-05-10T06:13:04.009Z,17.43
2023-05-10T06:14:03.917Z,17.43
2023-05-10T06:15:03.924Z,17.51
2023-05-10T06:16:03.912Z,17.54
2023-05-10T06:17:03.975Z,17.81
2023-05-10T06:18:04.000Z,17.79
2023-05-10T06:19:03.913Z,17.97
2023-05-10T06:20:03.916Z,17.95
2023-05-10T06:21:03.914Z,17.81
2023-05-10T06:22:03.912Z,18.00
2023-05-10T06:23:03.921Z,18.11
2023-05-10T06:24:03.945Z,18.03
2023-05-10T06:25:03.917Z,17.95
2023-05-10T06:26:03.934Z,18.08
2023-05-10T06:27:03.905Z,18.33
2023-05-10T06:28:03.946Z,18.29
2023-05-10T06:29:03.906Z,18.36
2023-05-10T06:30:12.442Z,18.41
2023-05-10T06:31:03.912Z,18.33
2023-05-10T06:32:03.910Z,18.33
2023-05-10T06:33:03.967Z,18.25
2023-05-10T06:34:03.915Z,18.36
2023-05-10T06:35:03.909Z,18.36
2023-05-10T06:36:03.923Z,18.50
2023-05-10T06:37:03.929Z,18.47
2023-05-10T06:38:03.913Z,18.45
2023-05-10T06:39:03.914Z,18.41
2023-05-10T06:40:03.910Z,18.55
2023-05-10T06:41:03.909Z,18.63
2023-05-10T06:42:04.004Z,18.84
2023-05-10T06:43:03.915Z,18.85
2023-05-10T06:44:03.926Z,18.92
2023-05-10T06:45:03.914Z,18.95
2023-05-10T06:46:03.958Z,19.13
2023-05-10T06:47:03.915Z,19.31
2023-05-10T06:48:03.946Z,19.23
2023-05-10T06:49:03.912Z,19.26
2023-05-10T06:50:03.928Z,19.22
2023-05-10T06:51:03.919Z,19.26
2023-05-10T06:52:03.916Z,19.44
2023-05-10T06:53:03.921Z,19.50
2023-05-10T06:54:03.926Z,19.58
2023-05-10T06:55:03.915Z,19.32
2023-05-10T06:56:04.519Z,19.51
2023-05-10T06:57:05.807Z,19.56
2023-05-10T06:58:03.993Z,19.65
2023-05-10T06:59:03.954Z,19.56
2023-05-10T07:00:03.972Z,19.73
2023-05-10T07:01:04.027Z,19.66
2023-05-10T07:02:03.979Z,19.66
2023-05-10T07:03:04.023Z,19.68
2023-05-10T07:04:03.919Z,19.71
2023-05-10T07:05:03.920Z,19.83
2023-05-10T07:06:03.928Z,19.66
2023-05-10T07:07:03.923Z,19.71
2023-05-10T07:08:03.947Z,19.58
2023-05-10T07:09:03.928Z,19.55
2023-05-10T07:10:03.929Z,19.73
2023-05-10T07:11:03.926Z,19.77
2023-05-10T07:12:03.966Z,20.02
2023-05-10T07:13:04.013Z,19.96
2023-05-10T07:14:03.942Z,20.38
2023-05-10T07:15:03.930Z,20.41
2023-05-10T07:16:03.950Z,20.36
2023-05-10T07:17:03.972Z,20.35
2023-05-10T07:18:04.111Z,20.59
2023-05-10T07:19:03.931Z,20.85
2023-05-10T07:20:03.936Z,20.74
2023-05-10T07:21:03.963Z,20.79
2023-05-10T07:22:03.958Z,20.72
2023-05-10T07:23:03.930Z,20.94
2023-05-10T07:24:03.938Z,21.16
2023-05-10T07:25:03.934Z,21.29
2023-05-10T07:26:03.933Z,21.59
2023-05-10T07:27:03.945Z,21.62
2023-05-10T07:28:03.952Z,21.88
2023-05-10T07:29:03.936Z,21.96
2023-05-10T07:30:03.957Z,22.24
2023-05-10T07:31:03.976Z,22.57
2023-05-10T07:32:03.977Z,22.97
2023-05-10T07:33:03.985Z,23.32
2023-05-10T07:34:03.943Z,23.46
2023-05-10T07:35:03.936Z,23.51
2023-05-10T07:36:03.941Z,23.63
2023-05-10T07:37:03.952Z,24.35
2023-05-10T07:38:03.979Z,24.84
2023-05-10T07:39:03.942Z,24.58
2023-05-10T07:40:03.961Z,24.96
2023-05-10T07:41:03.950Z,25.57
2023-05-10T07:42:03.952Z,25.92
2023-05-10T07:43:03.955Z,26.09
2023-05-10T07:44:03.948Z,26.01
2023-05-10T07:45:03.996Z,26.09
2023-05-10T07:46:04.012Z,25.80
2023-05-10T07:47:03.959Z,25.30
2023-05-10T07:48:03.977Z,25.65
2023-05-10T07:49:04.003Z,25.95
2023-05-10T07:50:03.989Z,25.69
2023-05-10T07:51:03.965Z,26.35
2023-05-10T07:52:03.970Z,26.07
2023-05-10T07:53:03.998Z,25.72
2023-05-10T07:54:03.991Z,25.97
2023-05-10T07:55:03.972Z,26.21
2023-05-10T07:56:03.977Z,26.32
2023-05-10T07:57:03.999Z,26.58
2023-05-10T07:58:03.986Z,27.25
2023-05-10T07:59:03.986Z,27.41
2023-05-10T08:00:03.998Z,28.15
2023-05-10T08:01:03.999Z,28.76
2023-05-10T08:02:04.096Z,29.23
2023-05-10T08:03:04.179Z,29.26
2023-05-10T08:04:04.132Z,28.96
2023-05-10T08:05:04.034Z,28.77
2023-05-10T08:06:04.016Z,29.00
2023-05-10T08:07:04.032Z,29.42
2023-05-10T08:08:04.025Z,29.64
2023-05-10T08:09:04.044Z,29.28
2023-05-10T08:10:04.040Z,29.53
2023-05-10T08:11:04.036Z,29.53
2023-05-10T08:12:04.053Z,29.65
2023-05-10T08:13:04.059Z,29.09
2023-05-10T08:14:04.077Z,28.39
2023-05-10T08:15:04.071Z,28.12
2023-05-10T08:16:04.168Z,28.24
2023-05-10T08:17:04.090Z,28.55
2023-05-10T08:18:04.179Z,28.37
2023-05-10T08:19:04.219Z,29.02
2023-05-10T08:20:04.122Z,29.27
2023-05-10T08:21:04.110Z,29.34
2023-05-10T08:22:04.143Z,29.86
2023-05-10T08:23:04.134Z,29.63
2023-05-10T08:24:04.136Z,29.73
2023-05-10T08:25:04.149Z,30.35
2023-05-10T08:26:04.161Z,30.86
2023-05-10T08:27:04.164Z,31.38
2023-05-10T08:28:04.175Z,31.12
2023-05-10T08:29:04.199Z,30.95
2023-05-10T08:30:04.196Z,30.98
2023-05-10T08:31:04.220Z,30.53
2023-05-10T08:32:04.206Z,30.80
2023-05-10T08:33:04.310Z,31.57
2023-05-10T08:34:04.399Z,32.25
2023-05-10T08:35:04.249Z,32.72
2023-05-10T08:36:04.253Z,32.28
2023-05-10T08:37:04.290Z,31.81
2023-05-10T08:38:04.283Z,31.76
2023-05-10T08:39:04.286Z,32.15
2023-05-10T08:40:04.299Z,31.54
2023-05-10T08:41:04.307Z,30.83
2023-05-10T08:42:04.325Z,30.32
2023-05-10T08:43:04.334Z,30.11
2023-05-10T08:44:04.346Z,30.27
2023-05-10T08:45:04.356Z,29.89
2023-05-10T08:46:04.370Z,29.55
2023-05-10T08:47:04.473Z,30.05
2023-05-10T08:48:04.440Z,30.32
2023-05-10T08:49:04.416Z,29.90
2023-05-10T08:50:04.453Z,29.41
2023-05-10T08:51:04.444Z,29.76
2023-05-10T08:52:04.462Z,30.24
2023-05-10T08:53:04.465Z,30.43
2023-05-10T08:54:04.482Z,30.65
2023-05-10T08:55:04.498Z,30.99
2023-05-10T08:56:04.509Z,31.20
2023-05-10T08:57:04.526Z,32.11
2023-05-10T08:58:04.536Z,32.21
2023-05-10T08:59:04.549Z,32.33
2023-05-10T09:00:04.555Z,32.19
2023-05-10T09:01:04.660Z,32.14
2023-05-10T09:02:04.592Z,32.33
2023-05-10T09:03:04.743Z,32.51
2023-05-10T09:04:04.667Z,32.93
2023-05-10T09:05:04.727Z,32.75
2023-05-10T09:06:04.690Z,32.66
2023-05-10T09:07:04.684Z,32.97
2023-05-10T09:08:04.690Z,33.39
2023-05-10T09:09:04.701Z,32.93
2023-05-10T09:10:04.721Z,31.48
2023-05-10T09:11:04.741Z,31.13
2023-05-10T09:12:04.752Z,31.20
2023-05-10T09:13:04.782Z,31.86
2023-05-10T09:14:04.797Z,31.26
2023-05-10T09:15:04.966Z,31.14
2023-05-10T09:16:13.899Z,31.20
2023-05-10T09:17:04.933Z,30.98
2023-05-10T09:18:04.876Z,31.16
2023-05-10T09:19:04.963Z,31.51
2023-05-10T09:20:05.284Z,31.88
2023-05-10T09:21:04.898Z,31.46
2023-05-10T09:22:04.949Z,31.48
2023-05-10T09:23:04.940Z,32.18
2023-05-10T09:24:04.946Z,32.18
2023-05-10T09:25:04.969Z,32.35
2023-05-10T09:26:04.980Z,32.38
2023-05-10T09:27:05.010Z,32.74
2023-05-10T09:28:05.018Z,32.57
2023-05-10T09:29:05.040Z,32.15
2023-05-10T09:30:05.057Z,32.78
2023-05-10T09:31:05.150Z,33.26
2023-05-10T09:32:05.109Z,33.29
2023-05-10T09:33:05.153Z,33.86
2023-05-10T09:34:05.126Z,33.81
2023-05-10T09:35:05.159Z,33.35
2023-05-10T09:36:05.161Z,33.11
2023-05-10T09:37:05.195Z,33.26
2023-05-10T09:38:05.301Z,33.54
2023-05-10T09:39:05.230Z,33.38
2023-05-10T09:40:05.247Z,33.54
2023-05-10T09:41:05.264Z,33.28
2023-05-10T09:42:05.271Z,33.59
2023-05-10T09:43:05.334Z,33.61
2023-05-10T09:44:05.323Z,34.22
2023-05-10T09:45:05.342Z,33.86
2023-05-10T09:46:05.370Z,34.10
2023-05-10T09:47:05.380Z,33.42
2023-05-10T09:48:05.426Z,32.01
2023-05-10T09:49:05.418Z,31.38
2023-05-10T09:50:05.448Z,32.10
2023-05-10T09:51:05.457Z,31.66
2023-05-10T09:52:05.475Z,31.76
2023-05-10T09:53:05.504Z,31.95
2023-05-10T09:54:05.545Z,32.15
2023-05-10T09:55:05.540Z,32.11
2023-05-10T09:56:05.563Z,31.68
2023-05-10T09:57:05.583Z,32.01
2023-05-10T09:58:05.596Z,32.55
2023-05-10T09:59:05.617Z,32.52
2023-05-10T10:00:05.641Z,32.21
2023-05-10T10:01:05.682Z,31.61
2023-05-10T10:02:05.946Z,31.46
2023-05-10T10:03:05.844Z,32.10
2023-05-10T10:04:05.721Z,32.85
2023-05-10T10:05:05.814Z,33.11
2023-05-10T10:06:06.809Z,32.70
2023-05-10T10:07:05.802Z,32.92
2023-05-10T10:08:05.822Z,33.14
2023-05-10T10:09:05.843Z,32.47
2023-05-10T10:10:05.880Z,32.01
2023-05-10T10:11:05.893Z,32.03
2023-05-10T10:12:05.899Z,32.47
2023-05-10T10:13:05.932Z,33.26
2023-05-10T10:14:05.972Z,33.38
2023-05-10T10:15:05.957Z,33.11
2023-05-10T10:16:05.993Z,33.84
2023-05-10T10:17:08.744Z,33.23
2023-05-10T10:18:06.069Z,32.67
2023-05-10T10:19:06.085Z,32.44
2023-05-10T10:20:06.091Z,32.40
2023-05-10T10:21:06.174Z,33.14
2023-05-10T10:22:06.112Z,33.73
2023-05-10T10:23:06.128Z,33.81
2023-05-10T10:24:06.159Z,32.79
2023-05-10T10:25:06.180Z,33.53
2023-05-10T10:26:06.212Z,33.98
2023-05-10T10:27:06.216Z,33.49
2023-05-10T10:28:06.250Z,33.16
2023-05-10T10:29:06.273Z,32.72
2023-05-10T10:30:06.275Z,32.13
2023-05-10T10:31:06.329Z,31.63
2023-05-10T10:32:06.325Z,32.06
2023-05-10T10:33:13.579Z,32.65
2023-05-10T10:34:06.368Z,33.39
2023-05-10T10:35:06.397Z,33.73
2023-05-10T10:36:06.409Z,33.95
2023-05-10T10:37:06.446Z,33.63
2023-05-10T10:38:06.458Z,33.39
2023-05-10T10:39:06.491Z,33.76
2023-05-10T10:40:06.502Z,32.60
2023-05-10T10:41:06.537Z,32.07
2023-05-10T10:42:06.587Z,32.13
2023-05-10T10:43:06.570Z,32.29
2023-05-10T10:44:06.591Z,32.74
2023-05-10T10:45:06.623Z,33.39
2023-05-10T10:46:06.640Z,34.21
2023-05-10T10:47:06.732Z,34.25
2023-05-10T10:48:06.692Z,35.04
2023-05-10T10:49:06.708Z,35.22
2023-05-10T10:50:06.733Z,35.14
2023-05-10T10:51:06.756Z,35.41
2023-05-10T10:52:06.778Z,35.84
2023-05-10T10:53:06.839Z,36.13
2023-05-10T10:54:06.824Z,36.31
2023-05-10T10:55:06.846Z,36.73
2023-05-10T10:56:06.870Z,36.90
2023-05-10T10:57:06.890Z,36.87
2023-05-10T10:58:06.944Z,37.03
2023-05-10T10:59:06.944Z,36.50
2023-05-10T11:00:06.958Z,36.19
2023-05-10T11:01:07.017Z,36.25
2023-05-10T11:02:07.010Z,36.43
2023-05-10T11:03:07.104Z,36.20
2023-05-10T11:04:07.107Z,35.90
2023-05-10T11:05:07.089Z,36.16
2023-05-10T11:06:07.109Z,36.49
2023-05-10T11:07:07.130Z,36.60
2023-05-10T11:08:07.160Z,35.55
2023-05-10T11:09:07.206Z,35.68
2023-05-10T11:10:07.207Z,35.80
2023-05-10T11:11:07.239Z,35.63
2023-05-10T11:12:07.252Z,36.28
2023-05-10T11:13:07.288Z,36.57
2023-05-10T11:14:07.379Z,36.43
2023-05-10T11:15:07.342Z,36.08
2023-05-10T11:16:07.523Z,35.87
2023-05-10T11:17:07.532Z,34.25
2023-05-10T11:18:07.477Z,33.76
2023-05-10T11:19:07.547Z,33.87
2023-05-10T11:20:07.456Z,34.72
2023-05-10T11:21:07.486Z,34.88
2023-05-10T11:22:07.506Z,35.53
2023-05-10T11:23:07.533Z,35.75
2023-05-10T11:24:07.562Z,35.40
2023-05-10T11:25:07.587Z,35.02
2023-05-10T11:26:07.616Z,34.62
2023-05-10T11:27:07.638Z,34.09
2023-05-10T11:28:07.657Z,34.13
2023-05-10T11:29:07.685Z,34.34
2023-05-10T11:30:07.734Z,34.91
2023-05-10T11:31:07.799Z,35.43
2023-05-10T11:32:07.756Z,35.85
2023-05-10T11:33:07.830Z,35.33
2023-05-10T11:34:07.814Z,35.71
2023-05-10T11:35:07.837Z,36.44
2023-05-10T11:36:07.865Z,36.44
2023-05-10T11:37:07.882Z,36.34
2023-05-10T11:38:07.913Z,36.72
2023-05-10T11:39:07.939Z,36.99
2023-05-10T11:40:07.979Z,36.73
2023-05-10T11:41:07.993Z,36.56
2023-05-10T11:42:08.015Z,37.02
2023-05-10T11:43:08.042Z,36.72
2023-05-10T11:44:08.064Z,36.54
2023-05-10T11:45:08.102Z,36.84
2023-05-10T11:46:08.259Z,37.13
2023-05-10T11:47:08.140Z,37.55
2023-05-10T11:48:08.245Z,38.01
2023-05-10T11:49:08.192Z,37.34
2023-05-10T11:50:08.225Z,36.20
2023-05-10T11:51:08.248Z,36.39
2023-05-10T11:52:08.290Z,36.91
2023-05-10T11:53:08.296Z,37.46
2023-05-10T11:54:08.330Z,37.66
2023-05-10T11:55:08.352Z,37.37
2023-05-10T11:56:08.378Z,36.68
2023-05-10T11:57:08.409Z,36.54
2023-05-10T11:58:08.428Z,36.60
2023-05-10T11:59:08.452Z,36.59
2023-05-10T12:00:08.481Z,36.16
2023-05-10T12:01:08.522Z,36.17
2023-05-10T12:02:08.559Z,36.09
2023-05-10T12:03:08.704Z,35.45
2023-05-10T12:04:08.812Z,35.74
2023-05-10T12:05:08.625Z,35.77
2023-05-10T12:06:08.645Z,36.41
2023-05-10T12:07:08.681Z,36.50
2023-05-10T12:08:08.689Z,37.18
2023-05-10T12:09:08.729Z,37.51
2023-05-10T12:10:08.756Z,37.46
2023-05-10T12:11:08.766Z,38.04
2023-05-10T12:12:08.796Z,38.52
2023-05-10T12:13:08.820Z,38.88
2023-05-10T12:14:08.848Z,38.68
2023-05-10T12:15:08.874Z,38.37
2023-05-10T12:16:08.939Z,36.90
2023-05-10T12:17:08.926Z,36.46
2023-05-10T12:18:09.006Z,36.99
2023-05-10T12:19:09.142Z,36.81
2023-05-10T12:20:09.014Z,36.56
2023-05-10T12:21:09.041Z,36.94
2023-05-10T12:22:09.061Z,37.36
2023-05-10T12:23:09.097Z,36.85
2023-05-10T12:24:09.152Z,36.41
2023-05-10T12:25:09.134Z,36.01
2023-05-10T12:26:09.172Z,36.16
2023-05-10T12:27:09.306Z,35.89
2023-05-10T12:28:09.220Z,36.03
2023-05-10T12:29:09.246Z,36.41
2023-05-10T12:30:09.281Z,37.32
2023-05-10T12:31:09.295Z,38.00
2023-05-10T12:32:09.454Z,38.63
2023-05-10T12:33:09.441Z,38.04
2023-05-10T12:34:09.420Z,38.18
2023-05-10T12:35:09.406Z,37.97
2023-05-10T12:36:09.437Z,37.44
2023-05-10T12:37:09.459Z,36.64
2023-05-10T12:38:09.491Z,36.22
2023-05-10T12:39:09.513Z,35.07
2023-05-10T12:40:09.566Z,34.43
2023-05-10T12:41:09.637Z,34.35
2023-05-10T12:42:09.593Z,34.44
2023-05-10T12:43:09.623Z,34.40
2023-05-10T12:44:09.650Z,34.81
2023-05-10T12:45:09.680Z,35.48
2023-05-10T12:46:09.870Z,36.22
2023-05-10T12:47:09.721Z,36.49
2023-05-10T12:48:09.845Z,36.60
2023-05-10T12:49:10.077Z,36.34
2023-05-10T12:50:09.831Z,35.89
2023-05-10T12:51:09.821Z,36.41
2023-05-10T12:52:09.855Z,37.10